createdAt,value
2022-10-10T00:02:58.497Z,7.47
2022-10-10T00:07:00.571Z,7.53
2022-10-10T00:11:02.682Z,7.54
2022-10-10T00:15:05.594Z,7.49
2022-10-10T00:19:07.709Z,7.49
2022-10-10T00:23:09.757Z,7.52
2022-10-10T00:27:11.769Z,7.58
2022-10-10T00:31:14.180Z,7.51
2022-10-10T00:35:16.231Z,7.49
2022-10-10T00:39:18.250Z,7.49
2022-10-10T00:43:21.788Z,7.46
2022-10-10T00:47:23.866Z,7.45
2022-10-10T00:51:26.069Z,7.32
2022-10-10T00:55:28.227Z,7.29
2022-10-10T00:59:36.494Z,7.32
2022-10-10T01:03:38.530Z,7.24
2022-10-10T01:07:41.551Z,7.23
2022-10-10T01:12:00.595Z,7.08
2022-10-10T01:16:25.829Z,7.09
2022-10-10T01:20:45.428Z,7.11
2022-10-10T01:25:02.650Z,7.15
2022-10-10T01:29:17.604Z,7.20
2022-10-10T01:33:32.024Z,7.21
2022-10-10T01:37:45.161Z,7.18
2022-10-10T01:42:03.206Z,7.17
2022-10-10T01:46:13.561Z,7.21
2022-10-10T01:50:19.669Z,7.27
2022-10-10T01:54:47.584Z,7.36
2022-10-10T01:59:04.270Z,7.44
2022-10-10T02:03:21.976Z,7.54
2022-10-10T02:07:31.303Z,7.64
2022-10-10T02:11:38.143Z,7.74
2022-10-10T02:15:50.072Z,7.82
2022-10-10T02:19:56.697Z,7.89
2022-10-10T02:24:03.749Z,7.95
2022-10-10T02:28:25.699Z,8.01
2022-10-10T02:32:42.886Z,8.06
2022-10-10T02:36:49.448Z,8.16
2022-10-10T02:40:51.900Z,8.22
2022-10-10T02:44:55.057Z,8.25
2022-10-10T02:48:58.811Z,8.27
2022-10-10T02:53:00.804Z,8.29
2022-10-10T02:57:02.778Z,8.32
2022-10-10T03:01:04.903Z,8.34
2022-10-10T03:05:07.503Z,8.39
2022-10-10T03:09:09.497Z,8.40
2022-10-10T03:13:11.467Z,8.43
2022-10-10T03:17:13.442Z,8.44
2022-10-10T03:21:15.838Z,8.45
2022-10-10T03:25:17.877Z,8.45
2022-10-10T03:29:19.992Z,8.47
2022-10-10T03:33:22.533Z,8.61
2022-10-10T03:37:24.533Z,8.65
2022-10-10T03:41:26.545Z,8.67
2022-10-10T03:45:28.552Z,8.66
2022-10-10T03:49:30.673Z,8.67
2022-10-10T03:53:32.778Z,8.65
2022-10-10T03:57:34.977Z,8.67
2022-10-10T04:01:37.338Z,8.72
2022-10-10T04:05:39.733Z,8.74
2022-10-10T04:09:41.704Z,8.70
2022-10-10T04:13:43.684Z,8.68
2022-10-10T04:17:45.656Z,8.68
2022-10-10T04:21:47.642Z,8.66
2022-10-10T04:25:53.359Z,8.64
2022-10-10T04:29:55.348Z,8.63
2022-10-10T04:33:57.337Z,8.60
2022-10-10T04:37:59.336Z,8.59
2022-10-10T04:42:01.399Z,8.58
2022-10-10T04:46:03.551Z,8.55
2022-10-10T04:50:06.015Z,8.56
2022-10-10T04:54:08.057Z,8.62
2022-10-10T04:58:10.026Z,8.61
2022-10-10T05:02:12.103Z,8.62
2022-10-10T05:06:14.096Z,8.58
2022-10-10T05:10:16.362Z,8.57
2022-10-10T05:14:18.375Z,8.61
2022-10-10T05:18:21.438Z,8.61
2022-10-10T05:22:23.422Z,8.59
2022-10-10T05:26:25.483Z,8.62
2022-10-10T05:30:27.483Z,8.57
2022-10-10T05:34:29.569Z,8.53
2022-10-10T05:38:31.627Z,8.50
2022-10-10T05:42:33.624Z,8.56
2022-10-10T05:46:35.663Z,8.48
2022-10-10T05:50:40.631Z,8.47
2022-10-10T05:54:42.640Z,8.48
2022-10-10T05:58:45.244Z,8.46
2022-10-10T06:02:47.332Z,8.49
2022-10-10T06:06:50.342Z,8.44
2022-10-10T06:10:52.899Z,8.39
2022-10-10T06:14:54.930Z,8.37
2022-10-10T06:18:57.136Z,8.41
2022-10-10T06:22:59.143Z,8.48
2022-10-10T06:27:01.141Z,8.52
2022-10-10T06:31:06.513Z,8.54
2022-10-10T06:35:08.621Z,8.55
2022-10-10T06:39:10.669Z,8.54
2022-10-10T06:43:14.444Z,8.58
2022-10-10T06:47:16.918Z,8.65
2022-10-10T06:51:19.020Z,8.76
2022-10-10T06:55:21.000Z,8.85
2022-10-10T06:59:22.998Z,8.93
2022-10-10T07:03:25.880Z,9.06
2022-10-10T07:07:27.902Z,9.22
2022-10-10T07:11:30.096Z,9.32
2022-10-10T07:15:32.110Z,9.42
2022-10-10T07:19:37.223Z,9.54
2022-10-10T07:23:39.450Z,9.65
2022-10-10T07:27:41.546Z,9.76
2022-10-10T07:31:43.555Z,9.89
2022-10-10T07:35:54.040Z,10.12
2022-10-10T07:39:56.081Z,10.42
2022-10-10T07:43:58.125Z,10.71
2022-10-10T07:48:00.200Z,10.99
2022-10-10T07:52:02.523Z,11.27
2022-10-10T07:56:06.269Z,11.50
2022-10-10T08:00:10.012Z,11.79
2022-10-10T08:04:14.888Z,12.17
2022-10-10T08:08:16.891Z,12.51
2022-10-10T08:12:18.920Z,12.73
2022-10-10T08:16:21.062Z,13.08
2022-10-10T08:20:23.098Z,13.54
2022-10-10T08:24:25.206Z,13.98
2022-10-10T08:28:28.282Z,14.27
2022-10-10T08:32:30.427Z,14.48
2022-10-10T08:36:32.430Z,14.57
2022-10-10T08:40:42.360Z,14.56
2022-10-10T08:44:53.005Z,14.49
2022-10-10T08:48:58.440Z,14.48
2022-10-10T08:53:11.654Z,14.41
2022-10-10T08:57:26.030Z,14.43
2022-10-10T09:01:34.732Z,14.42
2022-10-10T09:05:36.681Z,14.44
2022-10-10T09:10:12.451Z,14.51
2022-10-10T09:14:44.709Z,14.63
2022-10-10T09:19:12.500Z,14.67
2022-10-10T09:23:19.734Z,14.67
2022-10-10T09:27:26.994Z,14.67
2022-10-10T09:31:33.948Z,14.68
2022-10-10T09:35:39.028Z,14.72
2022-10-10T09:39:48.698Z,14.74
2022-10-10T09:43:59.124Z,14.78
2022-10-10T09:48:01.107Z,14.82
2022-10-10T09:52:20.877Z,14.94
2022-10-10T09:56:27.319Z,15.05
2022-10-10T10:00:35.199Z,15.13
2022-10-10T10:04:37.232Z,15.23
2022-10-10T10:08:39.648Z,15.34
2022-10-10T10:12:44.122Z,15.44
2022-10-10T10:16:46.123Z,15.51
2022-10-10T10:20:51.363Z,15.59
2022-10-10T10:24:53.765Z,15.64
2022-10-10T10:29:00.317Z,15.70
2022-10-10T10:33:15.766Z,15.77
2022-10-10T10:37:23.896Z,15.94
2022-10-10T10:41:38.265Z,16.03
2022-10-10T10:46:07.136Z,16.20
2022-10-10T10:50:27.849Z,16.37
2022-10-10T10:54:40.128Z,16.52
2022-10-10T10:59:36.260Z,16.64
2022-10-10T11:05:16.047Z,16.79
2022-10-10T11:08:03.165Z,16.87
2022-10-10T11:12:27.039Z,16.98
2022-10-10T11:16:53.669Z,17.06
2022-10-10T11:21:05.376Z,17.10
2022-10-10T11:25:16.987Z,17.18
2022-10-10T11:29:27.771Z,17.24
2022-10-10T11:33:42.812Z,17.31
2022-10-10T11:37:53.174Z,17.42
2022-10-10T11:42:00.297Z,17.50
2022-10-10T11:46:33.920Z,17.64
2022-10-10T11:50:40.298Z,17.81
2022-10-10T11:55:14.011Z,17.88
2022-10-10T11:59:34.031Z,17.98
2022-10-10T12:03:36.020Z,18.04
2022-10-10T12:07:49.103Z,18.15
2022-10-10T12:12:02.633Z,18.28
2022-10-10T12:16:10.522Z,18.42
2022-10-10T12:20:15.587Z,18.54
2022-10-10T12:24:17.624Z,18.67
2022-10-10T12:28:56.318Z,18.76
2022-10-10T12:32:58.864Z,18.83
2022-10-10T12:37:21.653Z,18.94
2022-10-10T12:41:52.695Z,19.11
2022-10-10T12:46:09.603Z,19.15
2022-10-10T12:50:41.575Z,19.15
2022-10-10T12:54:45.634Z,19.23
2022-10-10T12:58:49.517Z,19.28
2022-10-10T13:02:57.716Z,19.37
2022-10-10T13:07:02.480Z,19.41
2022-10-10T13:11:13.343Z,19.49
2022-10-10T13:15:20.256Z,19.59
2022-10-10T13:19:24.354Z,19.74
2022-10-10T13:23:26.662Z,19.84
2022-10-10T13:27:32.281Z,19.87
2022-10-10T13:31:34.355Z,19.87
2022-10-10T13:35:38.157Z,19.83
2022-10-10T13:39:40.615Z,19.85
2022-10-10T13:43:42.697Z,19.88
2022-10-10T13:47:56.771Z,19.98
2022-10-10T13:52:20.221Z,20.08
2022-10-10T13:56:30.959Z,20.17
2022-10-10T14:00:33.058Z,20.17
2022-10-10T14:04:44.153Z,20.08
2022-10-10T14:08:48.183Z,20.04
2022-10-10T14:12:56.608Z,19.91
2022-10-10T14:17:00.991Z,19.82
2022-10-10T14:21:03.339Z,19.79
2022-10-10T14:25:05.941Z,19.90
2022-10-10T14:29:13.463Z,20.01
2022-10-10T14:33:17.632Z,20.15
2022-10-10T14:37:25.184Z,20.19
2022-10-10T14:41:27.298Z,20.14
2022-10-10T14:45:29.374Z,20.09
2022-10-10T14:49:31.357Z,20.11
2022-10-10T14:53:33.349Z,20.12
2022-10-10T14:57:35.330Z,20.12
2022-10-10T15:01:37.319Z,20.03
2022-10-10T15:05:40.316Z,19.96
2022-10-10T15:10:10.870Z,19.89
2022-10-10T15:14:06.843Z,19.80
2022-10-10T15:18:25.704Z,19.68
2022-10-10T15:22:31.687Z,19.50
2022-10-10T15:26:33.745Z,19.44
2022-10-10T15:30:39.484Z,19.37
2022-10-10T15:34:44.242Z,19.33
2022-10-10T15:38:46.332Z,19.26
2022-10-10T15:42:49.968Z,19.17
2022-10-10T15:46:53.127Z,19.08
2022-10-10T15:50:55.168Z,18.94
2022-10-10T15:54:57.183Z,18.75
2022-10-10T15:59:01.381Z,18.56
2022-10-10T16:03:03.483Z,18.34
2022-10-10T16:07:24.606Z,18.14
2022-10-10T16:11:28.343Z,17.97
2022-10-10T16:15:30.579Z,17.85
2022-10-10T16:19:32.609Z,17.75
2022-10-10T16:23:34.683Z,17.65
2022-10-10T16:27:38.465Z,17.59
2022-10-10T16:31:40.995Z,17.49
2022-10-10T16:35:43.097Z,17.41
2022-10-10T16:39:45.100Z,17.33
2022-10-10T16:43:48.044Z,17.28
2022-10-10T16:47:50.022Z,17.22
2022-10-10T16:51:52.031Z,17.16
2022-10-10T16:55:59.225Z,17.11
2022-10-10T17:00:01.194Z,17.07
2022-10-10T17:04:03.574Z,17.00
2022-10-10T17:08:05.610Z,16.93
2022-10-10T17:12:07.592Z,16.79
2022-10-10T17:20:43.323Z,16.71
2022-10-10T17:24:45.335Z,16.70
2022-10-10T17:28:47.416Z,16.70
2022-10-10T17:32:50.125Z,16.75
2022-10-10T17:36:52.853Z,16.82
2022-10-10T17:41:00.019Z,16.89
2022-10-10T17:45:02.094Z,16.87
2022-10-10T17:49:06.029Z,16.83
2022-10-10T17:53:08.031Z,16.75
2022-10-10T17:57:10.284Z,16.76
2022-10-10T18:01:14.547Z,16.83
2022-10-10T18:05:16.807Z,16.85
2022-10-10T18:09:18.851Z,16.84
2022-10-10T18:13:20.898Z,16.86
2022-10-10T18:17:23.104Z,16.83
2022-10-10T18:21:25.172Z,16.79
2022-10-10T18:25:27.426Z,16.73
2022-10-10T18:29:29.498Z,16.69
2022-10-10T18:33:31.501Z,16.58
2022-10-10T18:37:35.422Z,16.49
2022-10-10T18:41:37.525Z,16.40
2022-10-10T18:45:39.619Z,16.22
2022-10-10T18:49:41.761Z,16.07
2022-10-10T18:53:45.256Z,15.95
2022-10-10T18:57:47.295Z,15.87
2022-10-10T19:01:52.515Z,15.85
2022-10-10T19:05:55.440Z,15.84
2022-10-10T19:09:57.429Z,15.80
2022-10-10T19:14:01.156Z,15.76
2022-10-10T19:18:03.325Z,15.66
2022-10-10T19:22:05.367Z,15.57
2022-10-10T19:26:10.498Z,15.47
2022-10-10T19:30:13.352Z,15.43
2022-10-10T19:34:15.419Z,15.40
2022-10-10T19:38:17.399Z,15.35
2022-10-10T19:42:19.418Z,15.30
2022-10-10T19:46:22.636Z,15.26
2022-10-10T19:50:24.656Z,15.23
2022-10-10T19:54:26.684Z,15.22
2022-10-10T19:58:29.388Z,15.23
2022-10-10T20:02:32.174Z,15.23
2022-10-10T20:06:34.209Z,15.19
2022-10-10T20:10:39.672Z,15.18
2022-10-10T20:14:41.688Z,15.15
2022-10-10T20:18:43.835Z,15.13
2022-10-10T20:22:45.906Z,15.12
2022-10-10T20:26:47.961Z,15.12
2022-10-10T20:30:51.396Z,15.06
2022-10-10T20:34:53.382Z,15.00
2022-10-10T20:39:04.881Z,15.00
2022-10-10T20:43:07.178Z,14.91
2022-10-10T20:47:09.157Z,14.83
2022-10-10T20:51:12.968Z,14.79
2022-10-10T20:55:14.962Z,14.75
2022-10-10T20:59:18.294Z,14.72
2022-10-10T21:03:20.301Z,14.67
2022-10-10T21:07:22.433Z,14.64
2022-10-10T21:11:24.520Z,14.59
2022-10-10T21:15:26.584Z,14.57
2022-10-10T21:19:28.578Z,14.57
2022-10-10T21:23:35.149Z,14.55
2022-10-10T21:27:37.181Z,14.55
2022-10-10T21:31:40.671Z,14.59
2022-10-10T21:35:42.747Z,14.57
2022-10-10T21:39:44.937Z,14.54
2022-10-10T21:43:57.507Z,14.50
2022-10-10T21:47:59.538Z,14.45
2022-10-10T21:52:01.590Z,14.39
2022-10-10T21:56:08.957Z,14.31
2022-10-10T22:00:12.074Z,14.25
2022-10-10T22:04:14.118Z,14.16
2022-10-10T22:08:16.146Z,14.07
2022-10-10T22:12:18.205Z,14.03
2022-10-10T22:16:20.691Z,13.97
2022-10-10T22:20:22.924Z,13.89
2022-10-10T22:24:25.103Z,13.82
2022-10-10T22:28:27.263Z,13.77
2022-10-10T22:32:29.731Z,13.67
2022-10-10T22:36:31.798Z,13.61
2022-10-10T22:40:34.284Z,13.53
2022-10-10T22:44:36.355Z,13.46
2022-10-10T22:48:38.446Z,13.40
2022-10-10T22:52:41.220Z,13.36
2022-10-10T22:56:43.381Z,13.35
2022-10-10T23:00:45.466Z,13.34
2022-10-10T23:04:47.570Z,13.27
2022-10-10T23:08:49.616Z,13.21
2022-10-10T23:12:51.710Z,13.09
2022-10-10T23:16:53.735Z,13.03
2022-10-10T23:20:56.108Z,13.00
2022-10-10T23:24:58.194Z,12.88
2022-10-10T23:29:00.266Z,12.86
2022-10-10T23:33:02.321Z,12.84
2022-10-10T23:37:04.314Z,12.78
2022-10-10T23:41:07.272Z,12.71
2022-10-10T23:45:09.793Z,12.64
2022-10-10T23:49:11.795Z,12.57
2022-10-10T23:53:14.048Z,12.52
2022-10-10T23:57:16.043Z,12.47
